Swinomish — WC5223 — position and weather

sailwx.info

Track history (hours):
 
Tides and Currents Weather Stations Pressure Air Temp Water Temp Dewpoint Dewpoint Depression Visibility Wind Speed Wind Dir Waves Ship Positions

Swinomish

Owner: DUNLAP TOWING CO, LA CONNER, WA. More information available from US FCC via Universal Licensing System and Coast Guard Vessel Documentation Center.

Last reported at 2017-Jun-26 13:29 UTC. Time now 2017-Jun-26 14:07 UTC.
Position N 48°36' W 123°00'.

Length 15 m; draft 3.5 m.

Type: Tug. MMSI: 366972050.

Date/timePositionNaut miles runAvg speedWind from/ knotsBaromVisibWave heightAir tempDewpointWater temp
2017-Jun-26 13:29N 48°36' W 123°00'0 0.1
2017-Jun-26 13:00N 48°36' W 123°01'0 0.1
2017-Jun-26 12:30N 48°36' W 123°00'0 0.0
2017-Jun-26 12:00N 48°36' W 123°00'0 0.0
2017-Jun-26 11:30N 48°36' W 123°00'0 0.0
2017-Jun-26 11:00N 48°36' W 123°00'0 0.0
2017-Jun-26 10:30N 48°36' W 123°00'0 0.0
2017-Jun-26 10:00N 48°36' W 123°00'0 0.0
2017-Jun-26 09:30N 48°36' W 123°00'0 0.0
2017-Jun-26 09:00N 48°36' W 123°00'0 0.0
2017-Jun-26 08:30N 48°36' W 123°00'0 0.0
2017-Jun-26 08:00N 48°36' W 123°00'0 0.1
2017-Jun-26 07:30N 48°36' W 123°00'0 0.7
2017-Jun-26 07:00N 48°37' W 123°01'1 1.3
2017-Jun-26 06:30N 48°37' W 123°02'1 2.2
2017-Jun-26 06:00N 48°38' W 123°02'1 1.4
2017-Jun-26 05:30N 48°38' W 123°02'1 2.3
2017-Jun-26 05:00N 48°39' W 123°01'1 2.4
2017-Jun-26 04:30N 48°40' W 123°00'1 2.2
2017-Jun-26 04:00N 48°41' W 122°59'1 1.8
2017-Jun-26 03:30N 48°42' W 122°59'1 1.9
2017-Jun-26 02:59N 48°43' W 122°59'1 1.6
2017-Jun-26 02:02N 48°44' W 122°60'0 1.0
2017-Jun-26 02:00N 48°44' W 122°60'1 1.5
2017-Jun-26 01:30N 48°45' W 123°01'1 1.8
2017-Jun-26 01:00N 48°44' W 123°02'1 2.1
2017-Jun-26 00:29N 48°44' W 123°04'1 2.2
2017-Jun-25 23:59N 48°44' W 123°06'1 2.9
2017-Jun-25 23:29N 48°44' W 123°08'1 2.9
2017-Jun-25 23:00N 48°45' W 123°10'1 2.1
2017-Jun-25 22:30N 48°45' W 123°11'1 1.7
2017-Jun-25 22:00N 48°46' W 123°12'1 1.8
2017-Jun-25 21:30N 48°46' W 123°13'3 2.1
2017-Jun-25 20:04N 48°49' W 123°16'1 3.4
2017-Jun-25 19:54N 48°49' W 123°17'1 3.1
2017-Jun-25 19:28N 48°50' W 123°19'1 2.6
2017-Jun-25 19:00N 48°50' W 123°20'1 2.6
2017-Jun-25 18:29N 48°51' W 123°22'1 2.3
2017-Jun-25 18:00N 48°51' W 123°23'1 2.4
2017-Jun-25 17:25N 48°52' W 123°25'1 1.2
2017-Jun-25 16:13N 48°53' W 123°27'3 0.6
2017-Jun-25 11:49N 48°55' W 123°29'0 1.2
2017-Jun-25 11:30N 48°55' W 123°30'3 1.2
2017-Jun-25 09:20N 48°57' W 123°33'1 1.2
2017-Jun-25 08:44N 48°57' W 123°34'0 1.1
2017-Jun-25 08:29N 48°58' W 123°34'1 1.1
2017-Jun-25 07:52N 48°58' W 123°35'1 1.7
2017-Jun-25 07:28N 48°59' W 123°35'1 1.6
2017-Jun-25 07:00N 48°59' W 123°36'2 1.8
2017-Jun-25 05:51N 49°01' W 123°37'6 0.5
2017-Jun-24 17:18N 49°07' W 123°43'0 0.1
2017-Jun-24 16:49N 49°07' W 123°43'0 0.1
2017-Jun-24 15:53N 49°07' W 123°42'0 0.0
2017-Jun-24 15:24N 49°07' W 123°42'0 0.2
2017-Jun-24 14:59N 49°07' W 123°43'0 0.1
2017-Jun-24 12:22N 49°06' W 123°43'1 2.8
2017-Jun-24 11:54N 49°05' W 123°44'2 3.2
2017-Jun-24 11:21N 49°03' W 123°44'2 3.4
2017-Jun-24 10:54N 49°02' W 123°44'1 3.0
2017-Jun-24 10:30N 49°01' W 123°44'1 2.7
2017-Jun-24 09:58N 48°59' W 123°43'1 2.7
2017-Jun-24 09:30N 48°58' W 123°43'1 2.9
2017-Jun-24 09:00N 48°57' W 123°42'1 2.9
2017-Jun-24 08:30N 48°55' W 123°41'0 0.6
2017-Jun-24 08:00N 48°55' W 123°41'0 0.1
2017-Jun-24 07:30N 48°55' W 123°41'2 4.4
2017-Jun-24 07:00N 48°55' W 123°38'5 7.4
2017-Jun-24 06:17N 48°54' W 123°30'310.1
2017-Jun-24 06:00N 48°53' W 123°26'510.3
2017-Jun-24 05:30N 48°50' W 123°20'510.4
2017-Jun-24 05:00N 48°47' W 123°13'510.7
2017-Jun-24 04:30N 48°45' W 123°06'610.4
2017-Jun-24 03:57N 48°44' W 122°57'510.7
2017-Jun-24 03:29N 48°43' W 122°50'4 9.2
2017-Jun-24 03:00N 48°40' W 122°44'5 9.8
2017-Jun-24 02:30N 48°38' W 122°38'610.9
2017-Jun-24 02:00N 48°33' W 122°34'5 9.5
2017-Jun-24 01:30N 48°28' W 122°32'5 1.8
2017-Jun-23 22:57N 48°24' W 122°30'0 0.0
2017-Jun-23 21:29N 48°24' W 122°30'0 0.0
2017-Jun-23 13:56N 48°24' W 122°30'0 0.6
2017-Jun-23 13:27N 48°24' W 122°30'1 1.6
2017-Jun-23 13:00N 48°25' W 122°30'3 4.8
2017-Jun-23 12:25N 48°22' W 122°31'818.0
2017-Jun-23 11:57N 48°14' W 122°33'4 8.9
2017-Jun-23 11:30N 48°10' W 122°33'2 3.0
2017-Jun-23 10:59N 48°08' W 122°32'612.8
2017-Jun-23 10:29N 48°04' W 122°25'712.9
2017-Jun-23 09:58N 48°00' W 122°16'3 5.2
2017-Jun-23 09:29N 47°59' W 122°13'0 0.4
2017-Jun-23 09:00N 47°59' W 122°13'0 0.3
2017-Jun-23 08:30N 47°59' W 122°13'1 1.9
2017-Jun-23 08:00N 47°58' W 122°15'0 0.8
2017-Jun-23 07:30N 47°59' W 122°15'1 2.2
2017-Jun-23 07:00N 47°60' W 122°16'1 2.3
2017-Jun-23 06:26N 48°01' W 122°17'1 2.6
2017-Jun-23 05:56N 48°02' W 122°19'1 3.0
2017-Jun-23 05:30N 48°02' W 122°20'2 3.4
2017-Jun-23 04:56N 48°03' W 122°23'1 1.5
2017-Jun-23 04:30N 48°03' W 122°24'1 2.5
2017-Jun-23 03:59N 48°04' W 122°25'1 2.8
2017-Jun-23 03:30N 48°05' W 122°27'10 2.3
2017-Jun-22 23:08N 48°14' W 122°33'1 1.9
2017-Jun-22 22:47N 48°15' W 122°33'1 1.4
2017-Jun-22 22:00N 48°16' W 122°32'1 1.1
2017-Jun-22 21:23N 48°16' W 122°31'0 1.1
2017-Jun-22 20:58N 48°17' W 122°31'1 1.1
2017-Jun-22 20:28N 48°17' W 122°30'1 1.2
2017-Jun-22 19:59N 48°18' W 122°30'1 1.3
2017-Jun-22 19:18N 48°19' W 122°30'1 2.2
2017-Jun-22 18:58N 48°19' W 122°31'2 3.3
2017-Jun-22 18:31N 48°20' W 122°32'2 3.6
2017-Jun-22 18:00N 48°22' W 122°34'3 2.6
2017-Jun-22 17:00N 48°24' W 122°35'1 2.3
2017-Jun-22 16:29N 48°25' W 122°37'1 2.5
2017-Jun-22 15:59N 48°24' W 122°38'1 1.7
2017-Jun-22 15:30N 48°24' W 122°39'0 0.4
2017-Jun-22 15:00N 48°25' W 122°40'0 0.1
2017-Jun-22 14:30N 48°25' W 122°40'0 0.4
2017-Jun-22 13:29N 48°25' W 122°40'0 0.7
2017-Jun-22 13:00N 48°25' W 122°41'1 1.2
2017-Jun-22 12:30N 48°25' W 122°41'1 2.3
2017-Jun-22 12:00N 48°26' W 122°43'1 2.9
2017-Jun-22 11:30N 48°28' W 122°43'1 2.6
2017-Jun-22 11:00N 48°29' W 122°44'1 1.9
2017-Jun-22 10:30N 48°30' W 122°44'1 1.6
2017-Jun-22 10:00N 48°31' W 122°44'1 1.5
2017-Jun-22 09:30N 48°31' W 122°45'1 1.2
2017-Jun-22 09:00N 48°31' W 122°46'1 1.6
2017-Jun-22 08:30N 48°32' W 122°47'1 1.0
2017-Jun-22 08:00N 48°32' W 122°48'1 1.3
2017-Jun-22 07:30N 48°32' W 122°49'1 1.2
2017-Jun-22 07:00N 48°32' W 122°50'1 1.1
2017-Jun-22 06:30N 48°32' W 122°51'0 0.6
2017-Jun-22 06:00N 48°32' W 122°51'0 0.0
2017-Jun-22 05:30N 48°32' W 122°51'0 0.1
2017-Jun-22 05:00N 48°32' W 122°51'0 0.0
2017-Jun-22 04:30N 48°32' W 122°51'0 0.0
2017-Jun-22 04:01N 48°32' W 122°51'0 0.0
2017-Jun-22 03:30N 48°32' W 122°51'0 0.0
2017-Jun-22 03:00N 48°32' W 122°51'0 0.0
2017-Jun-22 02:29N 48°32' W 122°51'0 0.1
2017-Jun-22 02:00N 48°32' W 122°51'0 0.0
2017-Jun-22 01:30N 48°32' W 122°51'0 0.0
2017-Jun-22 01:00N 48°32' W 122°51'0 0.1
2017-Jun-22 00:30N 48°32' W 122°51'0 0.1
2017-Jun-22 00:00N 48°32' W 122°51'0 0.0
2017-Jun-21 23:30N 48°32' W 122°51'0 0.1
2017-Jun-21 23:00N 48°32' W 122°51'0 0.0
2017-Jun-21 22:30N 48°32' W 122°51'0 0.1
2017-Jun-21 22:00N 48°32' W 122°51'0 0.0
2017-Jun-21 21:30N 48°32' W 122°51'0 0.0
2017-Jun-21 21:00N 48°32' W 122°51'0 0.0
2017-Jun-21 20:30N 48°32' W 122°51'0 0.0
2017-Jun-21 20:00N 48°32' W 122°51'0 0.0
2017-Jun-21 19:30N 48°32' W 122°51'0 0.0
2017-Jun-21 19:00N 48°32' W 122°51'0 0.0
2017-Jun-21 18:30N 48°32' W 122°51'0 0.0
2017-Jun-21 18:00N 48°32' W 122°51'0 0.0
2017-Jun-21 17:30N 48°32' W 122°51'0 0.0
2017-Jun-21 17:00N 48°32' W 122°51'0 0.0
2017-Jun-21 16:30N 48°32' W 122°51'0 0.0
2017-Jun-21 16:00N 48°32' W 122°51'0 0.0
2017-Jun-21 15:30N 48°32' W 122°51'0 0.0
2017-Jun-21 15:00N 48°32' W 122°51'0 0.0
2017-Jun-21 14:30N 48°32' W 122°51'0 0.0
2017-Jun-21 13:30N 48°32' W 122°51'0 0.0
2017-Jun-21 13:00N 48°32' W 122°51'0 0.0
2017-Jun-21 12:30N 48°32' W 122°51'0 0.1
2017-Jun-21 12:00N 48°32' W 122°51'0 0.0
2017-Jun-21 11:30N 48°32' W 122°51'0 0.0
2017-Jun-21 11:01N 48°32' W 122°51'0 0.0
2017-Jun-21 10:30N 48°32' W 122°51'0 0.0
2017-Jun-21 10:00N 48°32' W 122°51'0 0.0
2017-Jun-21 09:30N 48°32' W 122°51'0 0.0
2017-Jun-21 09:00N 48°32' W 122°51'0 0.0
2017-Jun-21 08:30N 48°32' W 122°51'0 0.0
2017-Jun-21 08:00N 48°32' W 122°51'0 0.0
2017-Jun-21 07:30N 48°32' W 122°51'0 0.0
2017-Jun-21 07:00N 48°32' W 122°51'0 0.0
2017-Jun-21 06:30N 48°32' W 122°51'0 0.0
2017-Jun-21 06:00N 48°32' W 122°51'0 0.0
2017-Jun-21 05:30N 48°32' W 122°51'0 0.0
2017-Jun-21 05:00N 48°32' W 122°51'0 0.0
2017-Jun-21 04:30N 48°32' W 122°51'0 0.0
2017-Jun-21 04:00N 48°32' W 122°51'0 0.0
2017-Jun-21 03:30N 48°32' W 122°51'0 0.0
2017-Jun-21 03:00N 48°32' W 122°51'0 0.0
2017-Jun-21 02:30N 48°32' W 122°51'0 0.0
2017-Jun-21 02:00N 48°32' W 122°51'0 0.0
2017-Jun-21 01:30N 48°32' W 122°51'0 0.0
2017-Jun-21 01:00N 48°32' W 122°51'0 0.0
2017-Jun-21 00:30N 48°32' W 122°51'0 0.0
2017-Jun-21 00:00N 48°32' W 122°51'0 0.0
2017-Jun-20 23:30N 48°32' W 122°51'0 0.0
2017-Jun-20 23:00N 48°32' W 122°51'0 0.0
2017-Jun-20 22:30N 48°32' W 122°51'0 0.0
2017-Jun-20 22:00N 48°32' W 122°51'0 0.0
2017-Jun-20 21:30N 48°32' W 122°51'0 0.0
2017-Jun-20 21:00N 48°32' W 122°51'0 0.0
2017-Jun-20 20:30N 48°32' W 122°51'0 0.0
2017-Jun-20 20:00N 48°32' W 122°51'0 0.0
2017-Jun-20 19:30N 48°32' W 122°51'0 0.0
2017-Jun-20 19:00N 48°32' W 122°51'0 0.1
2017-Jun-20 18:30N 48°32' W 122°51'0 0.0
2017-Jun-20 18:00N 48°32' W 122°51'0 0.0
2017-Jun-20 17:30N 48°32' W 122°51'0 0.0
2017-Jun-20 17:00N 48°32' W 122°51'0 0.0
2017-Jun-20 16:30N 48°32' W 122°51'0 0.0
2017-Jun-20 16:00N 48°32' W 122°51'0 0.1
2017-Jun-20 15:30N 48°32' W 122°51'0 0.1
2017-Jun-20 15:00N 48°32' W 122°51'0 0.1
2017-Jun-20 14:30N 48°32' W 122°51'0 0.0
2017-Jun-20 13:30N 48°31' W 122°51'0 0.0
2017-Jun-20 13:00N 48°31' W 122°51'0 0.0
2017-Jun-20 12:30N 48°31' W 122°51'0 0.0
2017-Jun-20 12:00N 48°31' W 122°51'0 0.0
2017-Jun-20 11:30N 48°31' W 122°51'0 0.0
2017-Jun-20 11:00N 48°31' W 122°51'0 0.0
2017-Jun-20 10:30N 48°31' W 122°51'0 0.1
2017-Jun-20 10:00N 48°32' W 122°51'0 0.1
2017-Jun-20 09:30N 48°32' W 122°51'0 0.0
2017-Jun-20 09:00N 48°32' W 122°51'0 0.0
2017-Jun-20 08:30N 48°32' W 122°51'0 0.0
2017-Jun-20 08:00N 48°32' W 122°51'0 0.0
2017-Jun-20 07:30N 48°32' W 122°51'0 0.0
2017-Jun-20 07:00N 48°32' W 122°51'0 0.0
2017-Jun-20 06:30N 48°32' W 122°51'0 0.0
2017-Jun-20 06:00N 48°32' W 122°51'0 0.0
2017-Jun-20 05:30N 48°32' W 122°51'0 0.0
2017-Jun-20 05:00N 48°32' W 122°51'0 0.0
2017-Jun-20 04:30N 48°32' W 122°51'0 0.0
2017-Jun-20 04:00N 48°32' W 122°51'0 0.0
2017-Jun-20 03:30N 48°32' W 122°51'0 0.0
2017-Jun-20 03:00N 48°32' W 122°51'0 0.0
2017-Jun-20 02:30N 48°31' W 122°51'0 0.0
2017-Jun-20 02:00N 48°31' W 122°51'0 0.0
2017-Jun-20 01:30N 48°31' W 122°51'0 0.0
2017-Jun-20 01:00N 48°31' W 122°51'0 0.0
2017-Jun-20 00:30N 48°31' W 122°51'0 0.0
2017-Jun-20 00:00N 48°31' W 122°51'0 0.0
2017-Jun-19 23:30N 48°31' W 122°51'0 0.1
2017-Jun-19 23:00N 48°32' W 122°51'0 0.0
2017-Jun-19 22:30N 48°32' W 122°51'0 0.0
2017-Jun-19 22:00N 48°32' W 122°51'0 0.0
2017-Jun-19 21:30N 48°32' W 122°51'0 0.0
2017-Jun-19 21:00N 48°32' W 122°51'0 0.0
2017-Jun-19 20:30N 48°32' W 122°51'0 0.1
2017-Jun-19 20:00N 48°32' W 122°51'0 0.0
2017-Jun-19 19:30N 48°32' W 122°51'0 0.0
2017-Jun-19 19:00N 48°32' W 122°51'0 0.1
2017-Jun-19 18:30N 48°32' W 122°51'0 0.0
2017-Jun-19 18:00N 48°32' W 122°51'0 0.2
2017-Jun-19 17:30N 48°31' W 122°51'1 1.5
2017-Jun-19 17:00N 48°32' W 122°50'1 1.6
2017-Jun-19 16:30N 48°33' W 122°50'1 1.8
2017-Jun-19 16:00N 48°33' W 122°51'1 1.7
2017-Jun-19 15:30N 48°34' W 122°51'1 1.6
2017-Jun-19 15:00N 48°35' W 122°52'1 2.1
2017-Jun-19 14:30N 48°35' W 122°54'2 1.9
2017-Jun-19 13:30N 48°35' W 122°57'1 1.8
2017-Jun-19 13:00N 48°36' W 122°58'1 2.3
2017-Jun-19 12:30N 48°35' W 122°60'1 1.6
2017-Jun-19 12:00N 48°36' W 123°01'1 1.5
2017-Jun-19 11:30N 48°37' W 123°01'1 1.6
2017-Jun-19 11:00N 48°37' W 123°02'1 2.3
2017-Jun-19 10:30N 48°38' W 123°02'1 2.0
2017-Jun-19 10:00N 48°39' W 123°01'1 2.6
2017-Jun-19 09:30N 48°40' W 123°01'1 2.2
2017-Jun-19 09:00N 48°41' W 122°60'1 1.9
2017-Jun-19 08:30N 48°42' W 122°59'1 1.5
2017-Jun-19 08:00N 48°42' W 122°59'1 1.4
2017-Jun-19 07:29N 48°43' W 122°59'1 1.3
2017-Jun-19 06:57N 48°44' W 122°59'1 1.3
2017-Jun-19 06:18N 48°44' W 122°60'1 3.2
2017-Jun-19 05:59N 48°45' W 123°01'2 3.3
2017-Jun-19 05:30N 48°44' W 123°04'2 3.2
2017-Jun-19 05:00N 48°43' W 123°06'1 2.4
2017-Jun-19 04:30N 48°44' W 123°08'1 2.1
2017-Jun-19 04:00N 48°44' W 123°09'1 2.0
2017-Jun-19 03:30N 48°45' W 123°10'1 1.4
2017-Jun-19 03:00N 48°45' W 123°11'0 0.9
2017-Jun-19 02:30N 48°46' W 123°11'0 1.0
2017-Jun-19 02:00N 48°46' W 123°12'0 0.9
2017-Jun-19 01:30N 48°46' W 123°12'0 0.9
2017-Jun-19 01:00N 48°47' W 123°13'0 0.9
2017-Jun-19 00:30N 48°47' W 123°13'0 0.9
2017-Jun-19 00:00N 48°47' W 123°13'0 0.9
2017-Jun-18 23:30N 48°47' W 123°14'0 0.6
2017-Jun-18 23:00N 48°47' W 123°15'0 0.0
2017-Jun-18 22:30N 48°47' W 123°15'0 0.0
2017-Jun-18 21:58N 48°47' W 123°15'0 0.0
2017-Jun-18 21:30N 48°47' W 123°15'0 0.0
2017-Jun-18 20:59N 48°47' W 123°15'0 0.0
2017-Jun-18 20:28N 48°47' W 123°15'0 0.0
2017-Jun-18 20:00N 48°47' W 123°15'0 0.0
2017-Jun-18 19:30N 48°47' W 123°15'0 0.0
2017-Jun-18 19:00N 48°47' W 123°15'0 0.0
2017-Jun-18 18:30N 48°47' W 123°15'0 0.0
2017-Jun-18 18:00N 48°47' W 123°15'0 0.0
2017-Jun-18 17:30N 48°47' W 123°15'0 0.1
2017-Jun-18 17:00N 48°47' W 123°15'0 0.3
2017-Jun-18 16:29N 48°48' W 123°15'1 1.4
2017-Jun-18 15:56N 48°48' W 123°15'1 1.4
2017-Jun-18 15:26N 48°49' W 123°16'1 1.3
2017-Jun-18 14:48N 48°49' W 123°17'1 1.1
2017-Jun-18 14:00N 48°49' W 123°18'1 1.4
2017-Jun-18 13:30N 48°50' W 123°19'2 3.1
2017-Jun-18 12:58N 48°51' W 123°21'1 2.3
2017-Jun-18 12:30N 48°51' W 123°23'1 2.4
2017-Jun-18 11:57N 48°52' W 123°25'1 1.8
2017-Jun-18 11:18N 48°53' W 123°26'1 1.8
2017-Jun-18 10:51N 48°53' W 123°27'1 1.5
2017-Jun-18 10:28N 48°53' W 123°28'2 0.7
2017-Jun-18 07:18N 48°55' W 123°30'0 0.8
2017-Jun-18 07:00N 48°55' W 123°30'1 0.6
2017-Jun-18 05:53N 48°55' W 123°31'1 0.2
2017-Jun-18 03:46N 48°56' W 123°31'0 0.2
2017-Jun-18 03:17N 48°56' W 123°31'0 0.2
2017-Jun-18 03:00N 48°56' W 123°31'0 0.3
2017-Jun-18 01:55N 48°56' W 123°32'0 0.4
2017-Jun-18 01:25N 48°56' W 123°32'0 0.5
2017-Jun-18 00:59N 48°57' W 123°32'0 0.5
2017-Jun-18 00:30N 48°57' W 123°32'0 0.8
2017-Jun-18 00:00N 48°57' W 123°33'1 1.4
2017-Jun-17 23:28N 48°57' W 123°33'1 1.5
2017-Jun-17 23:00N 48°58' W 123°34'1 1.9
2017-Jun-17 22:30N 48°59' W 123°35'1 2.3
2017-Jun-17 21:57N 48°60' W 123°36'1 2.1
2017-Jun-17 21:21N 49°01' W 123°37'1 1.2
2017-Jun-17 20:48N 49°01' W 123°38'0 0.6
2017-Jun-17 20:29N 49°02' W 123°38'1 0.7
2017-Jun-17 19:00N 49°02' W 123°39'1 0.7
2017-Jun-17 18:01N 49°03' W 123°39'0 0.8
2017-Jun-17 17:57N 49°03' W 123°39'1 0.9
2017-Jun-17 16:42N 49°04' W 123°40'4 1.1
2017-Jun-17 13:27N 49°07' W 123°43'0 0.1
2017-Jun-17 12:50N 49°07' W 123°43'0 0.0
2017-Jun-17 12:07N 49°07' W 123°43'0 0.1
2017-Jun-17 12:00N 49°07' W 123°43'7 1.8
2017-Jun-17 08:13N 49°01' W 123°37'210.3
2017-Jun-17 07:59N 48°59' W 123°35'1210.1
2017-Jun-17 06:48N 48°51' W 123°22'4 9.7
2017-Jun-17 06:23N 48°49' W 123°17'4 9.8
2017-Jun-17 06:00N 48°46' W 123°13'5 9.5
2017-Jun-17 05:30N 48°45' W 123°05'6 8.9
2017-Jun-17 04:52N 48°45' W 122°57'4 9.6
2017-Jun-17 04:25N 48°43' W 122°51'511.2
2017-Jun-17 04:00N 48°41' W 122°45'611.2
2017-Jun-17 03:30N 48°37' W 122°38'510.7
2017-Jun-17 03:00N 48°33' W 122°34'5 9.0
2017-Jun-17 02:29N 48°28' W 122°32'3 6.1
2017-Jun-17 01:58N 48°25' W 122°30'2 3.0
2017-Jun-17 01:28N 48°24' W 122°30'0 0.0
2017-Jun-16 23:56N 48°24' W 122°30'0 0.0
2017-Jun-16 22:40N 48°24' W 122°30'0 0.0
2017-Jun-16 22:29N 48°24' W 122°30'0 0.0
2017-Jun-16 21:44N 48°24' W 122°30'0 0.0
2017-Jun-16 21:30N 48°24' W 122°30'0 0.0
2017-Jun-16 21:00N 48°24' W 122°30'0 0.0
2017-Jun-16 20:30N 48°24' W 122°30'0 0.0
2017-Jun-16 20:00N 48°24' W 122°30'0 0.0
2017-Jun-16 19:29N 48°24' W 122°30'0 0.0
2017-Jun-16 18:57N 48°24' W 122°30'0 0.0
2017-Jun-16 18:30N 48°24' W 122°30'4 5.6
2017-Jun-16 17:52N 48°21' W 122°33'410.9
2017-Jun-16 17:30N 48°18' W 122°30'13 8.7
2017-Jun-16 16:01N 48°05' W 122°26'010.5
2017-Jun-16 16:00N 48°05' W 122°26'611.0
2017-Jun-16 15:25N 48°01' W 122°18'4 9.4
2017-Jun-16 15:00N 47°59' W 122°14'1 1.4
2017-Jun-16 14:30N 47°59' W 122°13'1 1.5
2017-Jun-16 13:30N 47°58' W 122°15'  
Track history (hours):
 
Tides and Currents Weather Stations Pressure Air Temp Water Temp Dewpoint Dewpoint Depression Visibility Wind Speed Wind Dir Waves Ship Positions

Swinomish

Owner: DUNLAP TOWING CO, LA CONNER, WA. More information available from US FCC via Universal Licensing System and Coast Guard Vessel Documentation Center.

Last reported at 2017-Jun-26 13:29 UTC. Time now 2017-Jun-26 14:07 UTC.
Position N 48°36' W 123°00'.

Length 15 m; draft 3.5 m.

Type: Tug. MMSI: 366972050.

Date/timePositionNaut miles runAvg speedWind from/ knotsBaromVisibWave heightAir tempDewpointWater temp
2017-Jun-26 13:29N 48°36' W 123°00'0 0.1
2017-Jun-26 13:00N 48°36' W 123°01'0 0.1
2017-Jun-26 12:30N 48°36' W 123°00'0 0.0
2017-Jun-26 12:00N 48°36' W 123°00'0 0.0
2017-Jun-26 11:30N 48°36' W 123°00'0 0.0
2017-Jun-26 11:00N 48°36' W 123°00'0 0.0
2017-Jun-26 10:30N 48°36' W 123°00'0 0.0
2017-Jun-26 10:00N 48°36' W 123°00'0 0.0
2017-Jun-26 09:30N 48°36' W 123°00'0 0.0
2017-Jun-26 09:00N 48°36' W 123°00'0 0.0
2017-Jun-26 08:30N 48°36' W 123°00'0 0.0
2017-Jun-26 08:00N 48°36' W 123°00'0 0.1
2017-Jun-26 07:30N 48°36' W 123°00'0 0.7
2017-Jun-26 07:00N 48°37' W 123°01'1 1.3
2017-Jun-26 06:30N 48°37' W 123°02'1 2.2
2017-Jun-26 06:00N 48°38' W 123°02'1 1.4
2017-Jun-26 05:30N 48°38' W 123°02'1 2.3
2017-Jun-26 05:00N 48°39' W 123°01'1 2.4
2017-Jun-26 04:30N 48°40' W 123°00'1 2.2
2017-Jun-26 04:00N 48°41' W 122°59'1 1.8
2017-Jun-26 03:30N 48°42' W 122°59'1 1.9
2017-Jun-26 02:59N 48°43' W 122°59'1 1.6
2017-Jun-26 02:02N 48°44' W 122°60'0 1.0
2017-Jun-26 02:00N 48°44' W 122°60'1 1.5
2017-Jun-26 01:30N 48°45' W 123°01'1 1.8
2017-Jun-26 01:00N 48°44' W 123°02'1 2.1
2017-Jun-26 00:29N 48°44' W 123°04'1 2.2
2017-Jun-25 23:59N 48°44' W 123°06'1 2.9
2017-Jun-25 23:29N 48°44' W 123°08'1 2.9
2017-Jun-25 23:00N 48°45' W 123°10'1 2.1
2017-Jun-25 22:30N 48°45' W 123°11'1 1.7
2017-Jun-25 22:00N 48°46' W 123°12'1 1.8
2017-Jun-25 21:30N 48°46' W 123°13'3 2.1
2017-Jun-25 20:04N 48°49' W 123°16'1 3.4
2017-Jun-25 19:54N 48°49' W 123°17'1 3.1
2017-Jun-25 19:28N 48°50' W 123°19'1 2.6
2017-Jun-25 19:00N 48°50' W 123°20'1 2.6
2017-Jun-25 18:29N 48°51' W 123°22'1 2.3
2017-Jun-25 18:00N 48°51' W 123°23'1 2.4
2017-Jun-25 17:25N 48°52' W 123°25'1 1.2
2017-Jun-25 16:13N 48°53' W 123°27'3 0.6
2017-Jun-25 11:49N 48°55' W 123°29'0 1.2
2017-Jun-25 11:30N 48°55' W 123°30'3 1.2
2017-Jun-25 09:20N 48°57' W 123°33'1 1.2
2017-Jun-25 08:44N 48°57' W 123°34'0 1.1
2017-Jun-25 08:29N 48°58' W 123°34'1 1.1
2017-Jun-25 07:52N 48°58' W 123°35'1 1.7
2017-Jun-25 07:28N 48°59' W 123°35'1 1.6
2017-Jun-25 07:00N 48°59' W 123°36'2 1.8
2017-Jun-25 05:51N 49°01' W 123°37'6 0.5
2017-Jun-24 17:18N 49°07' W 123°43'0 0.1
2017-Jun-24 16:49N 49°07' W 123°43'0 0.1
2017-Jun-24 15:53N 49°07' W 123°42'0 0.0
2017-Jun-24 15:24N 49°07' W 123°42'0 0.2
2017-Jun-24 14:59N 49°07' W 123°43'0 0.1
2017-Jun-24 12:22N 49°06' W 123°43'1 2.8
2017-Jun-24 11:54N 49°05' W 123°44'2 3.2
2017-Jun-24 11:21N 49°03' W 123°44'2 3.4
2017-Jun-24 10:54N 49°02' W 123°44'1 3.0
2017-Jun-24 10:30N 49°01' W 123°44'1 2.7
2017-Jun-24 09:58N 48°59' W 123°43'1 2.7
2017-Jun-24 09:30N 48°58' W 123°43'1 2.9
2017-Jun-24 09:00N 48°57' W 123°42'1 2.9
2017-Jun-24 08:30N 48°55' W 123°41'0 0.6
2017-Jun-24 08:00N 48°55' W 123°41'0 0.1
2017-Jun-24 07:30N 48°55' W 123°41'2 4.4
2017-Jun-24 07:00N 48°55' W 123°38'5 7.4
2017-Jun-24 06:17N 48°54' W 123°30'310.1
2017-Jun-24 06:00N 48°53' W 123°26'510.3
2017-Jun-24 05:30N 48°50' W 123°20'510.4
2017-Jun-24 05:00N 48°47' W 123°13'510.7
2017-Jun-24 04:30N 48°45' W 123°06'610.4
2017-Jun-24 03:57N 48°44' W 122°57'510.7
2017-Jun-24 03:29N 48°43' W 122°50'4 9.2
2017-Jun-24 03:00N 48°40' W 122°44'5 9.8
2017-Jun-24 02:30N 48°38' W 122°38'610.9
2017-Jun-24 02:00N 48°33' W 122°34'5 9.5
2017-Jun-24 01:30N 48°28' W 122°32'5 1.8
2017-Jun-23 22:57N 48°24' W 122°30'0 0.0
2017-Jun-23 21:29N 48°24' W 122°30'0 0.0
2017-Jun-23 13:56N 48°24' W 122°30'0 0.6
2017-Jun-23 13:27N 48°24' W 122°30'1 1.6
2017-Jun-23 13:00N 48°25' W 122°30'3 4.8
2017-Jun-23 12:25N 48°22' W 122°31'818.0
2017-Jun-23 11:57N 48°14' W 122°33'4 8.9
2017-Jun-23 11:30N 48°10' W 122°33'2 3.0
2017-Jun-23 10:59N 48°08' W 122°32'612.8
2017-Jun-23 10:29N 48°04' W 122°25'712.9
2017-Jun-23 09:58N 48°00' W 122°16'3 5.2
2017-Jun-23 09:29N 47°59' W 122°13'0 0.4
2017-Jun-23 09:00N 47°59' W 122°13'0 0.3
2017-Jun-23 08:30N 47°59' W 122°13'1 1.9
2017-Jun-23 08:00N 47°58' W 122°15'0 0.8
2017-Jun-23 07:30N 47°59' W 122°15'1 2.2
2017-Jun-23 07:00N 47°60' W 122°16'1 2.3
2017-Jun-23 06:26N 48°01' W 122°17'1 2.6
2017-Jun-23 05:56N 48°02' W 122°19'1 3.0
2017-Jun-23 05:30N 48°02' W 122°20'2 3.4
2017-Jun-23 04:56N 48°03' W 122°23'1 1.5
2017-Jun-23 04:30N 48°03' W 122°24'1 2.5
2017-Jun-23 03:59N 48°04' W 122°25'1 2.8
2017-Jun-23 03:30N 48°05' W 122°27'10 2.3
2017-Jun-22 23:08N 48°14' W 122°33'1 1.9
2017-Jun-22 22:47N 48°15' W 122°33'1 1.4
2017-Jun-22 22:00N 48°16' W 122°32'1 1.1
2017-Jun-22 21:23N 48°16' W 122°31'0 1.1
2017-Jun-22 20:58N 48°17' W 122°31'1 1.1
2017-Jun-22 20:28N 48°17' W 122°30'1 1.2
2017-Jun-22 19:59N 48°18' W 122°30'1 1.3
2017-Jun-22 19:18N 48°19' W 122°30'1 2.2
2017-Jun-22 18:58N 48°19' W 122°31'2 3.3
2017-Jun-22 18:31N 48°20' W 122°32'2 3.6
2017-Jun-22 18:00N 48°22' W 122°34'3 2.6
2017-Jun-22 17:00N 48°24' W 122°35'1 2.3
2017-Jun-22 16:29N 48°25' W 122°37'1 2.5
2017-Jun-22 15:59N 48°24' W 122°38'1 1.7
2017-Jun-22 15:30N 48°24' W 122°39'0 0.4
2017-Jun-22 15:00N 48°25' W 122°40'0 0.1
2017-Jun-22 14:30N 48°25' W 122°40'0 0.4
2017-Jun-22 13:29N 48°25' W 122°40'0 0.7
2017-Jun-22 13:00N 48°25' W 122°41'1 1.2
2017-Jun-22 12:30N 48°25' W 122°41'1 2.3
2017-Jun-22 12:00N 48°26' W 122°43'1 2.9
2017-Jun-22 11:30N 48°28' W 122°43'1 2.6
2017-Jun-22 11:00N 48°29' W 122°44'1 1.9
2017-Jun-22 10:30N 48°30' W 122°44'1 1.6
2017-Jun-22 10:00N 48°31' W 122°44'1 1.5
2017-Jun-22 09:30N 48°31' W 122°45'1 1.2
2017-Jun-22 09:00N 48°31' W 122°46'1 1.6
2017-Jun-22 08:30N 48°32' W 122°47'1 1.0
2017-Jun-22 08:00N 48°32' W 122°48'1 1.3
2017-Jun-22 07:30N 48°32' W 122°49'1 1.2
2017-Jun-22 07:00N 48°32' W 122°50'1 1.1
2017-Jun-22 06:30N 48°32' W 122°51'0 0.6
2017-Jun-22 06:00N 48°32' W 122°51'0 0.0
2017-Jun-22 05:30N 48°32' W 122°51'0 0.1
2017-Jun-22 05:00N 48°32' W 122°51'0 0.0
2017-Jun-22 04:30N 48°32' W 122°51'0 0.0
2017-Jun-22 04:01N 48°32' W 122°51'0 0.0
2017-Jun-22 03:30N 48°32' W 122°51'0 0.0
2017-Jun-22 03:00N 48°32' W 122°51'0 0.0
2017-Jun-22 02:29N 48°32' W 122°51'0 0.1
2017-Jun-22 02:00N 48°32' W 122°51'0 0.0
2017-Jun-22 01:30N 48°32' W 122°51'0 0.0
2017-Jun-22 01:00N 48°32' W 122°51'0 0.1
2017-Jun-22 00:30N 48°32' W 122°51'0 0.1
2017-Jun-22 00:00N 48°32' W 122°51'0 0.0
2017-Jun-21 23:30N 48°32' W 122°51'0 0.1
2017-Jun-21 23:00N 48°32' W 122°51'0 0.0
2017-Jun-21 22:30N 48°32' W 122°51'0 0.1
2017-Jun-21 22:00N 48°32' W 122°51'0 0.0
2017-Jun-21 21:30N 48°32' W 122°51'0 0.0
2017-Jun-21 21:00N 48°32' W 122°51'0 0.0
2017-Jun-21 20:30N 48°32' W 122°51'0 0.0
2017-Jun-21 20:00N 48°32' W 122°51'0 0.0
2017-Jun-21 19:30N 48°32' W 122°51'0 0.0
2017-Jun-21 19:00N 48°32' W 122°51'0 0.0
2017-Jun-21 18:30N 48°32' W 122°51'0 0.0
2017-Jun-21 18:00N 48°32' W 122°51'0 0.0
2017-Jun-21 17:30N 48°32' W 122°51'0 0.0
2017-Jun-21 17:00N 48°32' W 122°51'0 0.0
2017-Jun-21 16:30N 48°32' W 122°51'0 0.0
2017-Jun-21 16:00N 48°32' W 122°51'0 0.0
2017-Jun-21 15:30N 48°32' W 122°51'0 0.0
2017-Jun-21 15:00N 48°32' W 122°51'0 0.0
2017-Jun-21 14:30N 48°32' W 122°51'0 0.0
2017-Jun-21 13:30N 48°32' W 122°51'0 0.0
2017-Jun-21 13:00N 48°32' W 122°51'0 0.0
2017-Jun-21 12:30N 48°32' W 122°51'0 0.1
2017-Jun-21 12:00N 48°32' W 122°51'0 0.0
2017-Jun-21 11:30N 48°32' W 122°51'0 0.0
2017-Jun-21 11:01N 48°32' W 122°51'0 0.0
2017-Jun-21 10:30N 48°32' W 122°51'0 0.0
2017-Jun-21 10:00N 48°32' W 122°51'0 0.0
2017-Jun-21 09:30N 48°32' W 122°51'0 0.0
2017-Jun-21 09:00N 48°32' W 122°51'0 0.0
2017-Jun-21 08:30N 48°32' W 122°51'0 0.0
2017-Jun-21 08:00N 48°32' W 122°51'0 0.0
2017-Jun-21 07:30N 48°32' W 122°51'0 0.0
2017-Jun-21 07:00N 48°32' W 122°51'0 0.0
2017-Jun-21 06:30N 48°32' W 122°51'0 0.0
2017-Jun-21 06:00N 48°32' W 122°51'0 0.0
2017-Jun-21 05:30N 48°32' W 122°51'0 0.0
2017-Jun-21 05:00N 48°32' W 122°51'0 0.0
2017-Jun-21 04:30N 48°32' W 122°51'0 0.0
2017-Jun-21 04:00N 48°32' W 122°51'0 0.0
2017-Jun-21 03:30N 48°32' W 122°51'0 0.0
2017-Jun-21 03:00N 48°32' W 122°51'0 0.0
2017-Jun-21 02:30N 48°32' W 122°51'0 0.0
2017-Jun-21 02:00N 48°32' W 122°51'0 0.0
2017-Jun-21 01:30N 48°32' W 122°51'0 0.0
2017-Jun-21 01:00N 48°32' W 122°51'0 0.0
2017-Jun-21 00:30N 48°32' W 122°51'0 0.0
2017-Jun-21 00:00N 48°32' W 122°51'0 0.0
2017-Jun-20 23:30N 48°32' W 122°51'0 0.0
2017-Jun-20 23:00N 48°32' W 122°51'0 0.0
2017-Jun-20 22:30N 48°32' W 122°51'0 0.0
2017-Jun-20 22:00N 48°32' W 122°51'0 0.0
2017-Jun-20 21:30N 48°32' W 122°51'0 0.0
2017-Jun-20 21:00N 48°32' W 122°51'0 0.0
2017-Jun-20 20:30N 48°32' W 122°51'0 0.0
2017-Jun-20 20:00N 48°32' W 122°51'0 0.0
2017-Jun-20 19:30N 48°32' W 122°51'0 0.0
2017-Jun-20 19:00N 48°32' W 122°51'0 0.1
2017-Jun-20 18:30N 48°32' W 122°51'0 0.0
2017-Jun-20 18:00N 48°32' W 122°51'0 0.0
2017-Jun-20 17:30N 48°32' W 122°51'0 0.0
2017-Jun-20 17:00N 48°32' W 122°51'0 0.0
2017-Jun-20 16:30N 48°32' W 122°51'0 0.0
2017-Jun-20 16:00N 48°32' W 122°51'0 0.1
2017-Jun-20 15:30N 48°32' W 122°51'0 0.1
2017-Jun-20 15:00N 48°32' W 122°51'0 0.1
2017-Jun-20 14:30N 48°32' W 122°51'0 0.0
2017-Jun-20 13:30N 48°31' W 122°51'0 0.0
2017-Jun-20 13:00N 48°31' W 122°51'0 0.0
2017-Jun-20 12:30N 48°31' W 122°51'0 0.0
2017-Jun-20 12:00N 48°31' W 122°51'0 0.0
2017-Jun-20 11:30N 48°31' W 122°51'0 0.0
2017-Jun-20 11:00N 48°31' W 122°51'0 0.0
2017-Jun-20 10:30N 48°31' W 122°51'0 0.1
2017-Jun-20 10:00N 48°32' W 122°51'0 0.1
2017-Jun-20 09:30N 48°32' W 122°51'0 0.0
2017-Jun-20 09:00N 48°32' W 122°51'0 0.0
2017-Jun-20 08:30N 48°32' W 122°51'0 0.0
2017-Jun-20 08:00N 48°32' W 122°51'0 0.0
2017-Jun-20 07:30N 48°32' W 122°51'0 0.0
2017-Jun-20 07:00N 48°32' W 122°51'0 0.0
2017-Jun-20 06:30N 48°32' W 122°51'0 0.0
2017-Jun-20 06:00N 48°32' W 122°51'0 0.0
2017-Jun-20 05:30N 48°32' W 122°51'0 0.0
2017-Jun-20 05:00N 48°32' W 122°51'0 0.0
2017-Jun-20 04:30N 48°32' W 122°51'0 0.0
2017-Jun-20 04:00N 48°32' W 122°51'0 0.0
2017-Jun-20 03:30N 48°32' W 122°51'0 0.0
2017-Jun-20 03:00N 48°32' W 122°51'0 0.0
2017-Jun-20 02:30N 48°31' W 122°51'0 0.0
2017-Jun-20 02:00N 48°31' W 122°51'0 0.0
2017-Jun-20 01:30N 48°31' W 122°51'0 0.0
2017-Jun-20 01:00N 48°31' W 122°51'0 0.0
2017-Jun-20 00:30N 48°31' W 122°51'0 0.0
2017-Jun-20 00:00N 48°31' W 122°51'0 0.0
2017-Jun-19 23:30N 48°31' W 122°51'0 0.1
2017-Jun-19 23:00N 48°32' W 122°51'0 0.0
2017-Jun-19 22:30N 48°32' W 122°51'0 0.0
2017-Jun-19 22:00N 48°32' W 122°51'0 0.0
2017-Jun-19 21:30N 48°32' W 122°51'0 0.0
2017-Jun-19 21:00N 48°32' W 122°51'0 0.0
2017-Jun-19 20:30N 48°32' W 122°51'0 0.1
2017-Jun-19 20:00N 48°32' W 122°51'0 0.0
2017-Jun-19 19:30N 48°32' W 122°51'0 0.0
2017-Jun-19 19:00N 48°32' W 122°51'0 0.1
2017-Jun-19 18:30N 48°32' W 122°51'0 0.0
2017-Jun-19 18:00N 48°32' W 122°51'0 0.2
2017-Jun-19 17:30N 48°31' W 122°51'1 1.5
2017-Jun-19 17:00N 48°32' W 122°50'1 1.6
2017-Jun-19 16:30N 48°33' W 122°50'1 1.8
2017-Jun-19 16:00N 48°33' W 122°51'1 1.7
2017-Jun-19 15:30N 48°34' W 122°51'1 1.6
2017-Jun-19 15:00N 48°35' W 122°52'1 2.1
2017-Jun-19 14:30N 48°35' W 122°54'2 1.9
2017-Jun-19 13:30N 48°35' W 122°57'1 1.8
2017-Jun-19 13:00N 48°36' W 122°58'1 2.3
2017-Jun-19 12:30N 48°35' W 122°60'1 1.6
2017-Jun-19 12:00N 48°36' W 123°01'1 1.5
2017-Jun-19 11:30N 48°37' W 123°01'1 1.6
2017-Jun-19 11:00N 48°37' W 123°02'1 2.3
2017-Jun-19 10:30N 48°38' W 123°02'1 2.0
2017-Jun-19 10:00N 48°39' W 123°01'1 2.6
2017-Jun-19 09:30N 48°40' W 123°01'1 2.2
2017-Jun-19 09:00N 48°41' W 122°60'1 1.9
2017-Jun-19 08:30N 48°42' W 122°59'1 1.5
2017-Jun-19 08:00N 48°42' W 122°59'1 1.4
2017-Jun-19 07:29N 48°43' W 122°59'1 1.3
2017-Jun-19 06:57N 48°44' W 122°59'1 1.3
2017-Jun-19 06:18N 48°44' W 122°60'1 3.2
2017-Jun-19 05:59N 48°45' W 123°01'2 3.3
2017-Jun-19 05:30N 48°44' W 123°04'2 3.2
2017-Jun-19 05:00N 48°43' W 123°06'1 2.4
2017-Jun-19 04:30N 48°44' W 123°08'1 2.1
2017-Jun-19 04:00N 48°44' W 123°09'1 2.0
2017-Jun-19 03:30N 48°45' W 123°10'1 1.4
2017-Jun-19 03:00N 48°45' W 123°11'0 0.9
2017-Jun-19 02:30N 48°46' W 123°11'0 1.0
2017-Jun-19 02:00N 48°46' W 123°12'0 0.9
2017-Jun-19 01:30N 48°46' W 123°12'0 0.9
2017-Jun-19 01:00N 48°47' W 123°13'0 0.9
2017-Jun-19 00:30N 48°47' W 123°13'0 0.9
2017-Jun-19 00:00N 48°47' W 123°13'0 0.9
2017-Jun-18 23:30N 48°47' W 123°14'0 0.6
2017-Jun-18 23:00N 48°47' W 123°15'0 0.0
2017-Jun-18 22:30N 48°47' W 123°15'0 0.0
2017-Jun-18 21:58N 48°47' W 123°15'0 0.0
2017-Jun-18 21:30N 48°47' W 123°15'0 0.0
2017-Jun-18 20:59N 48°47' W 123°15'0 0.0
2017-Jun-18 20:28N 48°47' W 123°15'0 0.0
2017-Jun-18 20:00N 48°47' W 123°15'0 0.0
2017-Jun-18 19:30N 48°47' W 123°15'0 0.0
2017-Jun-18 19:00N 48°47' W 123°15'0 0.0
2017-Jun-18 18:30N 48°47' W 123°15'0 0.0
2017-Jun-18 18:00N 48°47' W 123°15'0 0.0
2017-Jun-18 17:30N 48°47' W 123°15'0 0.1
2017-Jun-18 17:00N 48°47' W 123°15'0 0.3
2017-Jun-18 16:29N 48°48' W 123°15'1 1.4
2017-Jun-18 15:56N 48°48' W 123°15'1 1.4
2017-Jun-18 15:26N 48°49' W 123°16'1 1.3
2017-Jun-18 14:48N 48°49' W 123°17'1 1.1
2017-Jun-18 14:00N 48°49' W 123°18'1 1.4
2017-Jun-18 13:30N 48°50' W 123°19'2 3.1
2017-Jun-18 12:58N 48°51' W 123°21'1 2.3
2017-Jun-18 12:30N 48°51' W 123°23'1 2.4
2017-Jun-18 11:57N 48°52' W 123°25'1 1.8
2017-Jun-18 11:18N 48°53' W 123°26'1 1.8
2017-Jun-18 10:51N 48°53' W 123°27'1 1.5
2017-Jun-18 10:28N 48°53' W 123°28'2 0.7
2017-Jun-18 07:18N 48°55' W 123°30'0 0.8
2017-Jun-18 07:00N 48°55' W 123°30'1 0.6
2017-Jun-18 05:53N 48°55' W 123°31'1 0.2
2017-Jun-18 03:46N 48°56' W 123°31'0 0.2
2017-Jun-18 03:17N 48°56' W 123°31'0 0.2
2017-Jun-18 03:00N 48°56' W 123°31'0 0.3
2017-Jun-18 01:55N 48°56' W 123°32'0 0.4
2017-Jun-18 01:25N 48°56' W 123°32'0 0.5
2017-Jun-18 00:59N 48°57' W 123°32'0 0.5
2017-Jun-18 00:30N 48°57' W 123°32'0 0.8
2017-Jun-18 00:00N 48°57' W 123°33'1 1.4
2017-Jun-17 23:28N 48°57' W 123°33'1 1.5
2017-Jun-17 23:00N 48°58' W 123°34'1 1.9
2017-Jun-17 22:30N 48°59' W 123°35'1 2.3
2017-Jun-17 21:57N 48°60' W 123°36'1 2.1
2017-Jun-17 21:21N 49°01' W 123°37'1 1.2
2017-Jun-17 20:48N 49°01' W 123°38'0 0.6
2017-Jun-17 20:29N 49°02' W 123°38'1 0.7
2017-Jun-17 19:00N 49°02' W 123°39'1 0.7
2017-Jun-17 18:01N 49°03' W 123°39'0 0.8
2017-Jun-17 17:57N 49°03' W 123°39'1 0.9
2017-Jun-17 16:42N 49°04' W 123°40'4 1.1
2017-Jun-17 13:27N 49°07' W 123°43'0 0.1
2017-Jun-17 12:50N 49°07' W 123°43'0 0.0
2017-Jun-17 12:07N 49°07' W 123°43'0 0.1
2017-Jun-17 12:00N 49°07' W 123°43'7 1.8
2017-Jun-17 08:13N 49°01' W 123°37'210.3
2017-Jun-17 07:59N 48°59' W 123°35'1210.1
2017-Jun-17 06:48N 48°51' W 123°22'4 9.7
2017-Jun-17 06:23N 48°49' W 123°17'4 9.8
2017-Jun-17 06:00N 48°46' W 123°13'5 9.5
2017-Jun-17 05:30N 48°45' W 123°05'6 8.9
2017-Jun-17 04:52N 48°45' W 122°57'4 9.6
2017-Jun-17 04:25N 48°43' W 122°51'511.2
2017-Jun-17 04:00N 48°41' W 122°45'611.2
2017-Jun-17 03:30N 48°37' W 122°38'510.7
2017-Jun-17 03:00N 48°33' W 122°34'5 9.0
2017-Jun-17 02:29N 48°28' W 122°32'3 6.1
2017-Jun-17 01:58N 48°25' W 122°30'2 3.0
2017-Jun-17 01:28N 48°24' W 122°30'0 0.0
2017-Jun-16 23:56N 48°24' W 122°30'0 0.0
2017-Jun-16 22:40N 48°24' W 122°30'0 0.0
2017-Jun-16 22:29N 48°24' W 122°30'0 0.0
2017-Jun-16 21:44N 48°24' W 122°30'0 0.0
2017-Jun-16 21:30N 48°24' W 122°30'0 0.0
2017-Jun-16 21:00N 48°24' W 122°30'0 0.0
2017-Jun-16 20:30N 48°24' W 122°30'0 0.0
2017-Jun-16 20:00N 48°24' W 122°30'0 0.0
2017-Jun-16 19:29N 48°24' W 122°30'0 0.0
2017-Jun-16 18:57N 48°24' W 122°30'0 0.0
2017-Jun-16 18:30N 48°24' W 122°30'4 5.6
2017-Jun-16 17:52N 48°21' W 122°33'410.9
2017-Jun-16 17:30N 48°18' W 122°30'13 8.7
2017-Jun-16 16:01N 48°05' W 122°26'010.5
2017-Jun-16 16:00N 48°05' W 122°26'611.0
2017-Jun-16 15:25N 48°01' W 122°18'4 9.4
2017-Jun-16 15:00N 47°59' W 122°14'1 1.4
2017-Jun-16 14:30N 47°59' W 122°13'1 1.5
2017-Jun-16 13:30N 47°58' W 122°15'  

Dump ship's entire track history